sensor_id;sensor_type;location;lat;lon;timestamp;P1;durP1;ratioP1;P2;durP2;ratioP2
6497;SDS011;3282;48.358;10.958;2022-10-16T00:00:53;8.55;;;3.90;;
6497;SDS011;3282;48.358;10.958;2022-10-16T00:03:20;9.10;;;3.83;;
6497;SDS011;3282;48.358;10.958;2022-10-16T00:05:53;8.13;;;4.10;;
6497;SDS011;3282;48.358;10.958;2022-10-16T00:08:20;7.32;;;3.97;;
6497;SDS011;3282;48.358;10.958;2022-10-16T00:10:46;5.28;;;3.30;;
6497;SDS011;3282;48.358;10.958;2022-10-16T00:13:13;7.20;;;3.58;;
6497;SDS011;3282;48.358;10.958;2022-10-16T00:15:39;7.13;;;3.58;;
6497;SDS011;3282;48.358;10.958;2022-10-16T00:18:06;6.85;;;3.30;;
6497;SDS011;3282;48.358;10.958;2022-10-16T00:20:33;6.40;;;3.38;;
6497;SDS011;3282;48.358;10.958;2022-10-16T00:23:01;9.48;;;3.80;;
6497;SDS011;3282;48.358;10.958;2022-10-16T00:25:27;7.35;;;3.70;;
6497;SDS011;3282;48.358;10.958;2022-10-16T00:27:54;8.25;;;3.67;;
6497;SDS011;3282;48.358;10.958;2022-10-16T00:30:20;6.32;;;4.10;;
6497;SDS011;3282;48.358;10.958;2022-10-16T00:32:47;8.00;;;3.80;;
6497;SDS011;3282;48.358;10.958;2022-10-16T00:35:13;5.32;;;3.45;;
6497;SDS011;3282;48.358;10.958;2022-10-16T00:37:40;6.95;;;3.50;;
6497;SDS011;3282;48.358;10.958;2022-10-16T00:40:07;5.88;;;4.00;;
6497;SDS011;3282;48.358;10.958;2022-10-16T00:42:34;8.18;;;3.88;;
6497;SDS011;3282;48.358;10.958;2022-10-16T00:45:00;7.35;;;3.80;;
6497;SDS011;3282;48.358;10.958;2022-10-16T00:47:39;8.50;;;3.75;;
6497;SDS011;3282;48.358;10.958;2022-10-16T00:50:10;9.10;;;3.78;;
6497;SDS011;3282;48.358;10.958;2022-10-16T00:52:40;6.97;;;3.58;;
6497;SDS011;3282;48.358;10.958;2022-10-16T00:55:12;8.77;;;3.67;;
6497;SDS011;3282;48.358;10.958;2022-10-16T00:57:39;6.05;;;3.33;;
6497;SDS011;3282;48.358;10.958;2022-10-16T01:00:07;7.32;;;3.15;;
6497;SDS011;3282;48.358;10.958;2022-10-16T01:02:36;6.68;;;3.13;;
6497;SDS011;3282;48.358;10.958;2022-10-16T01:05:02;9.40;;;3.40;;
6497;SDS011;3282;48.358;10.958;2022-10-16T01:12:59;7.22;;;3.00;;
6497;SDS011;3282;48.358;10.958;2022-10-16T01:15:34;6.35;;;3.10;;
6497;SDS011;3282;48.358;10.958;2022-10-16T01:18:06;7.18;;;2.90;;
6497;SDS011;3282;48.358;10.958;2022-10-16T01:23:45;7.10;;;2.78;;
6497;SDS011;3282;48.358;10.958;2022-10-16T01:28:51;5.68;;;2.88;;
6497;SDS011;3282;48.358;10.958;2022-10-16T01:31:22;5.18;;;2.80;;
6497;SDS011;3282;48.358;10.958;2022-10-16T01:33:56;7.43;;;3.00;;
6497;SDS011;3282;48.358;10.958;2022-10-16T01:36:35;4.25;;;2.58;;
6497;SDS011;3282;48.358;10.958;2022-10-16T01:39:06;5.55;;;2.63;;
6497;SDS011;3282;48.358;10.958;2022-10-16T01:41:38;7.18;;;2.50;;
6497;SDS011;3282;48.358;10.958;2022-10-16T01:44:10;7.43;;;2.83;;
6497;SDS011;3282;48.358;10.958;2022-10-16T01:46:43;9.98;;;2.72;;
6497;SDS011;3282;48.358;10.958;2022-10-16T01:49:12;4.65;;;2.50;;
6497;SDS011;3282;48.358;10.958;2022-10-16T01:51:39;6.45;;;2.50;;
6497;SDS011;3282;48.358;10.958;2022-10-16T01:54:09;6.63;;;2.33;;
6497;SDS011;3282;48.358;10.958;2022-10-16T01:56:38;4.70;;;2.70;;
6497;SDS011;3282;48.358;10.958;2022-10-16T01:59:06;6.53;;;2.40;;
6497;SDS011;3282;48.358;10.958;2022-10-16T02:01:38;9.32;;;2.58;;
6497;SDS011;3282;48.358;10.958;2022-10-16T02:04:13;4.70;;;2.50;;
6497;SDS011;3282;48.358;10.958;2022-10-16T02:06:44;5.38;;;2.50;;
6497;SDS011;3282;48.358;10.958;2022-10-16T02:09:11;5.47;;;2.70;;
6497;SDS011;3282;48.358;10.958;2022-10-16T02:11:37;6.07;;;2.60;;
6497;SDS011;3282;48.358;10.958;2022-10-16T02:14:05;5.30;;;2.60;;
6497;SDS011;3282;48.358;10.958;2022-10-16T02:16:33;4.03;;;2.33;;
6497;SDS011;3282;48.358;10.958;2022-10-16T02:19:11;5.28;;;2.50;;
6497;SDS011;3282;48.358;10.958;2022-10-16T02:30:11;5.70;;;2.10;;
6497;SDS011;3282;48.358;10.958;2022-10-16T02:32:43;6.80;;;2.63;;
6497;SDS011;3282;48.358;10.958;2022-10-16T02:35:12;7.82;;;2.25;;
6497;SDS011;3282;48.358;10.958;2022-10-16T02:37:41;6.25;;;2.20;;
6497;SDS011;3282;48.358;10.958;2022-10-16T02:40:08;3.90;;;2.15;;
6497;SDS011;3282;48.358;10.958;2022-10-16T02:42:37;8.73;;;2.15;;
6497;SDS011;3282;48.358;10.958;2022-10-16T02:45:05;4.85;;;2.20;;
6497;SDS011;3282;48.358;10.958;2022-10-16T02:47:33;7.35;;;2.33;;
6497;SDS011;3282;48.358;10.958;2022-10-16T02:50:00;4.32;;;2.22;;
6497;SDS011;3282;48.358;10.958;2022-10-16T02:52:26;4.07;;;2.25;;
6497;SDS011;3282;48.358;10.958;2022-10-16T02:54:53;5.07;;;2.30;;
6497;SDS011;3282;48.358;10.958;2022-10-16T02:57:20;4.35;;;2.10;;
6497;SDS011;3282;48.358;10.958;2022-10-16T02:59:47;5.10;;;2.05;;
6497;SDS011;3282;48.358;10.958;2022-10-16T03:02:13;4.55;;;2.20;;
6497;SDS011;3282;48.358;10.958;2022-10-16T03:04:40;4.05;;;2.17;;
6497;SDS011;3282;48.358;10.958;2022-10-16T03:07:06;5.25;;;2.35;;
6497;SDS011;3282;48.358;10.958;2022-10-16T03:09:33;4.20;;;2.10;;
6497;SDS011;3282;48.358;10.958;2022-10-16T03:12:00;4.25;;;2.20;;
6497;SDS011;3282;48.358;10.958;2022-10-16T03:14:27;6.22;;;2.28;;
6497;SDS011;3282;48.358;10.958;2022-10-16T03:16:58;5.97;;;2.30;;
6497;SDS011;3282;48.358;10.958;2022-10-16T03:19:25;4.75;;;2.20;;
6497;SDS011;3282;48.358;10.958;2022-10-16T03:21:51;9.52;;;2.30;;
6497;SDS011;3282;48.358;10.958;2022-10-16T03:24:18;6.35;;;2.22;;
6497;SDS011;3282;48.358;10.958;2022-10-16T03:26:44;3.83;;;2.00;;
6497;SDS011;3282;48.358;10.958;2022-10-16T03:29:11;6.45;;;2.20;;
6497;SDS011;3282;48.358;10.958;2022-10-16T03:31:37;4.95;;;2.28;;
6497;SDS011;3282;48.358;10.958;2022-10-16T03:34:04;5.80;;;2.20;;
6497;SDS011;3282;48.358;10.958;2022-10-16T03:36:30;4.30;;;2.20;;
6497;SDS011;3282;48.358;10.958;2022-10-16T03:38:57;9.57;;;2.30;;
6497;SDS011;3282;48.358;10.958;2022-10-16T03:41:24;6.15;;;2.30;;
6497;SDS011;3282;48.358;10.958;2022-10-16T03:43:50;6.28;;;2.50;;
6497;SDS011;3282;48.358;10.958;2022-10-16T03:46:17;5.07;;;2.40;;
6497;SDS011;3282;48.358;10.958;2022-10-16T03:48:43;7.38;;;2.20;;
6497;SDS011;3282;48.358;10.958;2022-10-16T03:51:10;6.15;;;2.10;;
6497;SDS011;3282;48.358;10.958;2022-10-16T03:53:36;3.75;;;2.13;;
6497;SDS011;3282;48.358;10.958;2022-10-16T03:56:03;4.18;;;2.00;;
6497;SDS011;3282;48.358;10.958;2022-10-16T03:58:30;4.40;;;2.05;;
6497;SDS011;3282;48.358;10.958;2022-10-16T04:00:56;6.50;;;2.40;;
6497;SDS011;3282;48.358;10.958;2022-10-16T04:03:23;4.90;;;2.30;;
6497;SDS011;3282;48.358;10.958;2022-10-16T04:05:49;5.00;;;2.20;;
6497;SDS011;3282;48.358;10.958;2022-10-16T04:08:16;6.53;;;2.50;;
6497;SDS011;3282;48.358;10.958;2022-10-16T04:10:43;5.50;;;2.50;;
6497;SDS011;3282;48.358;10.958;2022-10-16T04:13:10;9.45;;;2.60;;
6497;SDS011;3282;48.358;10.958;2022-10-16T04:15:37;9.52;;;2.58;;
6497;SDS011;3282;48.358;10.958;2022-10-16T04:18:04;5.55;;;2.75;;
6497;SDS011;3282;48.358;10.958;2022-10-16T04:20:31;4.95;;;2.53;;
6497;SDS011;3282;48.358;10.958;2022-10-16T04:22:58;8.10;;;2.72;;
6497;SDS011;3282;48.358;10.958;2022-10-16T04:25:24;8.27;;;3.10;;
6497;SDS011;3282;48.358;10.958;2022-10-16T04:27:54;5.45;;;2.83;;
6497;SDS011;3282;48.358;10.958;2022-10-16T04:30:21;6.93;;;3.00;;
6497;SDS011;3282;48.358;10.958;2022-10-16T04:32:49;5.78;;;3.00;;
6497;SDS011;3282;48.358;10.958;2022-10-16T04:35:17;4.40;;;2.65;;
6497;SDS011;3282;48.358;10.958;2022-10-16T04:37:45;7.03;;;2.60;;
6497;SDS011;3282;48.358;10.958;2022-10-16T04:40:12;6.45;;;2.50;;
6497;SDS011;3282;48.358;10.958;2022-10-16T04:42:39;5.97;;;2.72;;
6497;SDS011;3282;48.358;10.958;2022-10-16T04:45:06;5.20;;;2.55;;
6497;SDS011;3282;48.358;10.958;2022-10-16T04:47:39;3.90;;;2.50;;
6497;SDS011;3282;48.358;10.958;2022-10-16T04:50:06;4.20;;;2.40;;
6497;SDS011;3282;48.358;10.958;2022-10-16T04:52:33;3.97;;;2.47;;
6497;SDS011;3282;48.358;10.958;2022-10-16T04:55:05;8.75;;;2.90;;
6497;SDS011;3282;48.358;10.958;2022-10-16T04:57:32;5.65;;;2.53;;
6497;SDS011;3282;48.358;10.958;2022-10-16T04:59:59;6.10;;;2.92;;
6497;SDS011;3282;48.358;10.958;2022-10-16T05:02:26;4.85;;;2.85;;
6497;SDS011;3282;48.358;10.958;2022-10-16T05:04:52;7.05;;;2.80;;
6497;SDS011;3282;48.358;10.958;2022-10-16T05:07:19;7.70;;;2.92;;
6497;SDS011;3282;48.358;10.958;2022-10-16T05:09:46;5.78;;;3.45;;
6497;SDS011;3282;48.358;10.958;2022-10-16T05:12:12;8.05;;;3.40;;
6497;SDS011;3282;48.358;10.958;2022-10-16T05:14:39;6.75;;;3.38;;
6497;SDS011;3282;48.358;10.958;2022-10-16T05:17:05;4.88;;;2.60;;
6497;SDS011;3282;48.358;10.958;2022-10-16T05:19:32;6.25;;;2.53;;
6497;SDS011;3282;48.358;10.958;2022-10-16T05:21:58;4.72;;;2.67;;
6497;SDS011;3282;48.358;10.958;2022-10-16T05:24:25;6.05;;;2.78;;
6497;SDS011;3282;48.358;10.958;2022-10-16T05:26:52;5.32;;;2.70;;
6497;SDS011;3282;48.358;10.958;2022-10-16T05:29:19;5.57;;;2.70;;
6497;SDS011;3282;48.358;10.958;2022-10-16T05:31:46;5.78;;;2.67;;
6497;SDS011;3282;48.358;10.958;2022-10-16T05:34:12;6.00;;;2.90;;
6497;SDS011;3282;48.358;10.958;2022-10-16T05:36:39;5.32;;;2.70;;
6497;SDS011;3282;48.358;10.958;2022-10-16T05:39:05;5.43;;;2.97;;
6497;SDS011;3282;48.358;10.958;2022-10-16T05:41:32;7.20;;;3.00;;
6497;SDS011;3282;48.358;10.958;2022-10-16T05:43:59;7.88;;;3.10;;
6497;SDS011;3282;48.358;10.958;2022-10-16T05:46:25;9.00;;;3.15;;
6497;SDS011;3282;48.358;10.958;2022-10-16T05:48:52;6.18;;;3.55;;
6497;SDS011;3282;48.358;10.958;2022-10-16T05:51:19;6.57;;;3.50;;
6497;SDS011;3282;48.358;10.958;2022-10-16T05:53:46;6.97;;;3.70;;
6497;SDS011;3282;48.358;10.958;2022-10-16T05:56:12;5.75;;;3.10;;
6497;SDS011;3282;48.358;10.958;2022-10-16T05:58:39;5.32;;;3.30;;
6497;SDS011;3282;48.358;10.958;2022-10-16T06:01:11;7.35;;;3.90;;
6497;SDS011;3282;48.358;10.958;2022-10-16T06:03:39;6.90;;;3.50;;
6497;SDS011;3282;48.358;10.958;2022-10-16T06:08:43;5.30;;;3.00;;
6497;SDS011;3282;48.358;10.958;2022-10-16T06:11:15;13.15;;;3.30;;
6497;SDS011;3282;48.358;10.958;2022-10-16T06:13:50;6.33;;;3.40;;
6497;SDS011;3282;48.358;10.958;2022-10-16T06:16:18;6.35;;;3.55;;
6497;SDS011;3282;48.358;10.958;2022-10-16T06:18:45;6.25;;;3.47;;
6497;SDS011;3282;48.358;10.958;2022-10-16T06:21:22;8.00;;;2.80;;
6497;SDS011;3282;48.358;10.958;2022-10-16T06:23:54;6.75;;;2.63;;
6497;SDS011;3282;48.358;10.958;2022-10-16T06:26:22;6.65;;;2.78;;
6497;SDS011;3282;48.358;10.958;2022-10-16T06:28:51;6.80;;;3.10;;
6497;SDS011;3282;48.358;10.958;2022-10-16T06:31:17;5.53;;;2.67;;
6497;SDS011;3282;48.358;10.958;2022-10-16T06:33:44;6.97;;;2.83;;
6497;SDS011;3282;48.358;10.958;2022-10-16T06:36:14;6.28;;;3.17;;
6497;SDS011;3282;48.358;10.958;2022-10-16T06:38:43;5.57;;;3.00;;
6497;SDS011;3282;48.358;10.958;2022-10-16T06:41:14;5.28;;;3.10;;
6497;SDS011;3282;48.358;10.958;2022-10-16T06:43:42;5.43;;;2.83;;
6497;SDS011;3282;48.358;10.958;2022-10-16T06:46:11;5.82;;;2.70;;
6497;SDS011;3282;48.358;10.958;2022-10-16T06:48:39;4.55;;;2.47;;
6497;SDS011;3282;48.358;10.958;2022-10-16T06:51:06;4.72;;;2.45;;
6497;SDS011;3282;48.358;10.958;2022-10-16T06:53:36;6.53;;;2.38;;
6497;SDS011;3282;48.358;10.958;2022-10-16T06:56:25;6.13;;;2.33;;
6497;SDS011;3282;48.358;10.958;2022-10-16T06:58:53;3.95;;;2.15;;
6497;SDS011;3282;48.358;10.958;2022-10-16T07:01:21;5.55;;;2.40;;
6497;SDS011;3282;48.358;10.958;2022-10-16T07:03:49;5.13;;;2.20;;
6497;SDS011;3282;48.358;10.958;2022-10-16T07:06:17;6.65;;;2.40;;
6497;SDS011;3282;48.358;10.958;2022-10-16T07:08:46;5.65;;;2.40;;
6497;SDS011;3282;48.358;10.958;2022-10-16T07:11:15;3.72;;;2.15;;
6497;SDS011;3282;48.358;10.958;2022-10-16T07:13:43;3.67;;;2.10;;
6497;SDS011;3282;48.358;10.958;2022-10-16T07:16:18;4.97;;;2.20;;
6497;SDS011;3282;48.358;10.958;2022-10-16T07:18:46;3.80;;;2.25;;
6497;SDS011;3282;48.358;10.958;2022-10-16T07:21:16;7.25;;;2.00;;
6497;SDS011;3282;48.358;10.958;2022-10-16T07:23:45;5.50;;;1.90;;
6497;SDS011;3282;48.358;10.958;2022-10-16T07:26:16;5.53;;;1.80;;
6497;SDS011;3282;48.358;10.958;2022-10-16T07:28:43;4.85;;;2.00;;
6497;SDS011;3282;48.358;10.958;2022-10-16T07:31:11;4.53;;;1.73;;
6497;SDS011;3282;48.358;10.958;2022-10-16T07:33:40;3.78;;;1.70;;
6497;SDS011;3282;48.358;10.958;2022-10-16T07:36:11;5.90;;;1.90;;
6497;SDS011;3282;48.358;10.958;2022-10-16T07:38:42;4.65;;;1.90;;
6497;SDS011;3282;48.358;10.958;2022-10-16T07:41:09;3.90;;;1.60;;
6497;SDS011;3282;48.358;10.958;2022-10-16T07:43:38;3.65;;;1.65;;
6497;SDS011;3282;48.358;10.958;2022-10-16T07:46:05;5.18;;;1.63;;
6497;SDS011;3282;48.358;10.958;2022-10-16T07:48:33;3.47;;;1.40;;
6497;SDS011;3282;48.358;10.958;2022-10-16T07:51:01;3.00;;;1.55;;
6497;SDS011;3282;48.358;10.958;2022-10-16T07:53:30;5.07;;;1.80;;
6497;SDS011;3282;48.358;10.958;2022-10-16T07:55:58;4.05;;;1.60;;
6497;SDS011;3282;48.358;10.958;2022-10-16T07:58:26;3.70;;;1.50;;
6497;SDS011;3282;48.358;10.958;2022-10-16T08:00:54;3.38;;;1.60;;
6497;SDS011;3282;48.358;10.958;2022-10-16T08:03:21;4.75;;;1.52;;
6497;SDS011;3282;48.358;10.958;2022-10-16T08:05:48;4.28;;;1.50;;
6497;SDS011;3282;48.358;10.958;2022-10-16T08:08:16;4.70;;;1.50;;
6497;SDS011;3282;48.358;10.958;2022-10-16T08:10:44;3.55;;;1.50;;
6497;SDS011;3282;48.358;10.958;2022-10-16T08:13:11;5.97;;;1.50;;
6497;SDS011;3282;48.358;10.958;2022-10-16T08:15:42;6.53;;;1.50;;
6497;SDS011;3282;48.358;10.958;2022-10-16T08:18:09;3.88;;;1.38;;
6497;SDS011;3282;48.358;10.958;2022-10-16T08:20:37;4.05;;;1.40;;
6497;SDS011;3282;48.358;10.958;2022-10-16T08:23:05;3.33;;;1.38;;
6497;SDS011;3282;48.358;10.958;2022-10-16T08:25:34;3.78;;;1.30;;
6497;SDS011;3282;48.358;10.958;2022-10-16T08:28:06;3.08;;;1.40;;
6497;SDS011;3282;48.358;10.958;2022-10-16T08:30:34;2.70;;;1.40;;
6497;SDS011;3282;48.358;10.958;2022-10-16T08:33:01;4.78;;;1.38;;
6497;SDS011;3282;48.358;10.958;2022-10-16T08:35:28;3.00;;;1.30;;
6497;SDS011;3282;48.358;10.958;2022-10-16T08:37:55;2.50;;;1.35;;
6497;SDS011;3282;48.358;10.958;2022-10-16T08:40:25;9.82;;;2.00;;
6497;SDS011;3282;48.358;10.958;2022-10-16T08:48:26;6.70;;;1.75;;
6497;SDS011;3282;48.358;10.958;2022-10-16T08:51:01;4.90;;;1.40;;
6497;SDS011;3282;48.358;10.958;2022-10-16T08:53:41;10.45;;;1.80;;
6497;SDS011;3282;48.358;10.958;2022-10-16T08:56:11;5.85;;;1.42;;
6497;SDS011;3282;48.358;10.958;2022-10-16T08:58:37;6.65;;;1.88;;
6497;SDS011;3282;48.358;10.958;2022-10-16T09:01:04;3.53;;;1.30;;
6497;SDS011;3282;48.358;10.958;2022-10-16T09:17:24;6.60;;;1.20;;
6497;SDS011;3282;48.358;10.958;2022-10-16T09:22:33;3.35;;;1.27;;
6497;SDS011;3282;48.358;10.958;2022-10-16T09:25:00;1.85;;;1.05;;
6497;SDS011;3282;48.358;10.958;2022-10-16T09:27:36;3.33;;;1.20;;
6497;SDS011;3282;48.358;10.958;2022-10-16T09:30:10;5.53;;;1.20;;
6497;SDS011;3282;48.358;10.958;2022-10-16T09:32:38;2.92;;;1.13;;
6497;SDS011;3282;48.358;10.958;2022-10-16T09:35:11;2.97;;;1.00;;
6497;SDS011;3282;48.358;10.958;2022-10-16T09:37:41;2.95;;;1.00;;
6497;SDS011;3282;48.358;10.958;2022-10-16T09:40:51;2.65;;;1.10;;
6497;SDS011;3282;48.358;10.958;2022-10-16T09:43:12;4.85;;;1.15;;
6497;SDS011;3282;48.358;10.958;2022-10-16T09:45:55;4.05;;;1.20;;
6497;SDS011;3282;48.358;10.958;2022-10-16T09:48:25;1.42;;;0.90;;
6497;SDS011;3282;48.358;10.958;2022-10-16T09:50:55;4.88;;;1.00;;
6497;SDS011;3282;48.358;10.958;2022-10-16T09:53:22;2.22;;;1.08;;
6497;SDS011;3282;48.358;10.958;2022-10-16T09:55:50;2.15;;;1.10;;
6497;SDS011;3282;48.358;10.958;2022-10-16T09:58:18;4.88;;;1.20;;
6497;SDS011;3282;48.358;10.958;2022-10-16T10:00:52;3.63;;;1.10;;
6497;SDS011;3282;48.358;10.958;2022-10-16T10:03:31;2.92;;;1.20;;
6497;SDS011;3282;48.358;10.958;2022-10-16T10:06:06;3.15;;;1.20;;
6497;SDS011;3282;48.358;10.958;2022-10-16T10:11:42;2.00;;;1.10;;
6497;SDS011;3282;48.358;10.958;2022-10-16T10:17:19;3.45;;;1.23;;
6497;SDS011;3282;48.358;10.958;2022-10-16T10:19:59;4.32;;;1.13;;
6497;SDS011;3282;48.358;10.958;2022-10-16T10:22:42;4.90;;;1.30;;
6497;SDS011;3282;48.358;10.958;2022-10-16T10:30:25;3.28;;;1.10;;
6497;SDS011;3282;48.358;10.958;2022-10-16T10:41:17;3.38;;;1.30;;
6497;SDS011;3282;48.358;10.958;2022-10-16T10:43:56;3.35;;;1.20;;
6497;SDS011;3282;48.358;10.958;2022-10-16T11:00:14;3.83;;;1.13;;
6497;SDS011;3282;48.358;10.958;2022-10-16T11:05:41;2.40;;;1.20;;
6497;SDS011;3282;48.358;10.958;2022-10-16T11:08:13;1.98;;;1.17;;
6497;SDS011;3282;48.358;10.958;2022-10-16T11:15:54;4.18;;;1.30;;
6497;SDS011;3282;48.358;10.958;2022-10-16T11:18:46;3.90;;;1.20;;
6497;SDS011;3282;48.358;10.958;2022-10-16T11:21:14;2.88;;;1.42;;
6497;SDS011;3282;48.358;10.958;2022-10-16T11:24:29;2.47;;;1.10;;
6497;SDS011;3282;48.358;10.958;2022-10-16T11:26:49;3.78;;;1.13;;
6497;SDS011;3282;48.358;10.958;2022-10-16T11:29:21;3.47;;;1.33;;
6497;SDS011;3282;48.358;10.958;2022-10-16T11:31:55;5.28;;;1.20;;
6497;SDS011;3282;48.358;10.958;2022-10-16T11:34:41;4.05;;;1.20;;
6497;SDS011;3282;48.358;10.958;2022-10-16T11:37:31;3.05;;;1.10;;
6497;SDS011;3282;48.358;10.958;2022-10-16T11:40:45;3.08;;;1.38;;
6497;SDS011;3282;48.358;10.958;2022-10-16T11:45:57;5.10;;;1.20;;
6497;SDS011;3282;48.358;10.958;2022-10-16T11:48:49;1.95;;;1.00;;
6497;SDS011;3282;48.358;10.958;2022-10-16T11:51:31;1.73;;;1.05;;
6497;SDS011;3282;48.358;10.958;2022-10-16T11:54:04;1.83;;;0.90;;
6497;SDS011;3282;48.358;10.958;2022-10-16T11:56:43;1.17;;;0.80;;
6497;SDS011;3282;48.358;10.958;2022-10-16T11:59:17;1.58;;;0.90;;
6497;SDS011;3282;48.358;10.958;2022-10-16T12:07:07;3.65;;;1.10;;
6497;SDS011;3282;48.358;10.958;2022-10-16T12:09:38;3.42;;;1.10;;
6497;SDS011;3282;48.358;10.958;2022-10-16T12:12:26;2.60;;;1.50;;
6497;SDS011;3282;48.358;10.958;2022-10-16T12:15:18;2.53;;;1.20;;
6497;SDS011;3282;48.358;10.958;2022-10-16T12:18:00;3.15;;;1.20;;
6497;SDS011;3282;48.358;10.958;2022-10-16T12:20:31;3.13;;;1.10;;
6497;SDS011;3282;48.358;10.958;2022-10-16T12:23:00;3.47;;;1.10;;
6497;SDS011;3282;48.358;10.958;2022-10-16T12:30:39;7.40;;;1.20;;
6497;SDS011;3282;48.358;10.958;2022-10-16T12:33:19;3.40;;;0.93;;
6497;SDS011;3282;48.358;10.958;2022-10-16T12:35:48;2.92;;;1.00;;
6497;SDS011;3282;48.358;10.958;2022-10-16T12:41:12;3.83;;;1.00;;
6497;SDS011;3282;48.358;10.958;2022-10-16T12:43:41;2.25;;;1.00;;
6497;SDS011;3282;48.358;10.958;2022-10-16T12:48:40;1.40;;;0.90;;
6497;SDS011;3282;48.358;10.958;2022-10-16T13:02:22;10.40;;;1.30;;
6497;SDS011;3282;48.358;10.958;2022-10-16T13:04:55;2.25;;;1.00;;
6497;SDS011;3282;48.358;10.958;2022-10-16T13:10:35;4.82;;;1.08;;
6497;SDS011;3282;48.358;10.958;2022-10-16T13:13:17;4.45;;;1.15;;
6497;SDS011;3282;48.358;10.958;2022-10-16T13:29:12;2.10;;;1.15;;
6497;SDS011;3282;48.358;10.958;2022-10-16T13:31:40;3.10;;;1.00;;
6497;SDS011;3282;48.358;10.958;2022-10-16T13:34:10;2.92;;;1.08;;
6497;SDS011;3282;48.358;10.958;2022-10-16T13:36:44;17.20;;;1.83;;
6497;SDS011;3282;48.358;10.958;2022-10-16T13:39:23;6.18;;;1.08;;
6497;SDS011;3282;48.358;10.958;2022-10-16T13:42:34;3.42;;;1.00;;
6497;SDS011;3282;48.358;10.958;2022-10-16T13:44:51;2.70;;;1.00;;
6497;SDS011;3282;48.358;10.958;2022-10-16T13:47:21;2.10;;;1.10;;
6497;SDS011;3282;48.358;10.958;2022-10-16T13:50:04;1.73;;;0.93;;
6497;SDS011;3282;48.358;10.958;2022-10-16T13:52:32;2.90;;;0.80;;
6497;SDS011;3282;48.358;10.958;2022-10-16T13:54:59;1.98;;;1.05;;
6497;SDS011;3282;48.358;10.958;2022-10-16T13:57:28;2.67;;;1.00;;
6497;SDS011;3282;48.358;10.958;2022-10-16T13:59:54;2.47;;;0.95;;
6497;SDS011;3282;48.358;10.958;2022-10-16T14:02:34;1.92;;;1.00;;
6497;SDS011;3282;48.358;10.958;2022-10-16T14:05:07;3.60;;;0.90;;
6497;SDS011;3282;48.358;10.958;2022-10-16T14:07:36;3.30;;;1.02;;
6497;SDS011;3282;48.358;10.958;2022-10-16T14:10:05;3.60;;;1.10;;
6497;SDS011;3282;48.358;10.958;2022-10-16T14:12:44;2.15;;;1.20;;
6497;SDS011;3282;48.358;10.958;2022-10-16T14:15:17;2.25;;;1.15;;
6497;SDS011;3282;48.358;10.958;2022-10-16T14:17:45;3.95;;;1.33;;
6497;SDS011;3282;48.358;10.958;2022-10-16T14:20:14;2.00;;;1.02;;
6497;SDS011;3282;48.358;10.958;2022-10-16T14:22:42;4.88;;;1.10;;
6497;SDS011;3282;48.358;10.958;2022-10-16T14:27:45;1.60;;;1.00;;
6497;SDS011;3282;48.358;10.958;2022-10-16T14:30:23;2.13;;;1.10;;
6497;SDS011;3282;48.358;10.958;2022-10-16T14:32:56;3.08;;;1.00;;
6497;SDS011;3282;48.358;10.958;2022-10-16T14:37:59;2.17;;;1.00;;
6497;SDS011;3282;48.358;10.958;2022-10-16T14:40:29;2.95;;;1.10;;
6497;SDS011;3282;48.358;10.958;2022-10-16T14:42:57;2.45;;;1.00;;
6497;SDS011;3282;48.358;10.958;2022-10-16T14:45:30;2.28;;;1.00;;
6497;SDS011;3282;48.358;10.958;2022-10-16T14:50:27;2.65;;;1.10;;
6497;SDS011;3282;48.358;10.958;2022-10-16T14:52:54;2.38;;;1.00;;
6497;SDS011;3282;48.358;10.958;2022-10-16T14:55:21;3.22;;;1.13;;
6497;SDS011;3282;48.358;10.958;2022-10-16T14:57:49;2.17;;;1.00;;
6497;SDS011;3282;48.358;10.958;2022-10-16T15:02:45;5.15;;;1.58;;
6497;SDS011;3282;48.358;10.958;2022-10-16T15:07:50;7.68;;;1.30;;
6497;SDS011;3282;48.358;10.958;2022-10-16T15:10:21;3.65;;;1.30;;
6497;SDS011;3282;48.358;10.958;2022-10-16T15:12:49;3.25;;;1.20;;
6497;SDS011;3282;48.358;10.958;2022-10-16T15:17:49;3.08;;;1.10;;
6497;SDS011;3282;48.358;10.958;2022-10-16T15:20:19;3.55;;;1.20;;
6497;SDS011;3282;48.358;10.958;2022-10-16T15:22:46;5.07;;;1.58;;
6497;SDS011;3282;48.358;10.958;2022-10-16T15:25:58;2.30;;;1.10;;
6497;SDS011;3282;48.358;10.958;2022-10-16T15:28:02;3.90;;;1.15;;
6497;SDS011;3282;48.358;10.958;2022-10-16T15:30:30;4.03;;;1.23;;
6497;SDS011;3282;48.358;10.958;2022-10-16T15:32:56;3.90;;;1.25;;
6497;SDS011;3282;48.358;10.958;2022-10-16T15:35:23;2.80;;;1.30;;
6497;SDS011;3282;48.358;10.958;2022-10-16T15:37:50;5.15;;;1.13;;
6497;SDS011;3282;48.358;10.958;2022-10-16T15:40:17;3.13;;;1.40;;
6497;SDS011;3282;48.358;10.958;2022-10-16T15:42:44;4.65;;;1.30;;
6497;SDS011;3282;48.358;10.958;2022-10-16T15:45:12;2.58;;;1.20;;
6497;SDS011;3282;48.358;10.958;2022-10-16T15:47:42;2.45;;;1.33;;
6497;SDS011;3282;48.358;10.958;2022-10-16T15:50:11;3.03;;;1.30;;
6497;SDS011;3282;48.358;10.958;2022-10-16T15:52:39;2.95;;;1.30;;
6497;SDS011;3282;48.358;10.958;2022-10-16T15:55:08;4.97;;;1.40;;
6497;SDS011;3282;48.358;10.958;2022-10-16T15:57:35;4.75;;;1.30;;
6497;SDS011;3282;48.358;10.958;2022-10-16T16:00:07;3.72;;;1.30;;
6497;SDS011;3282;48.358;10.958;2022-10-16T16:02:39;3.97;;;1.42;;
6497;SDS011;3282;48.358;10.958;2022-10-16T16:05:07;3.38;;;1.40;;
6497;SDS011;3282;48.358;10.958;2022-10-16T16:07:34;4.60;;;1.50;;
6497;SDS011;3282;48.358;10.958;2022-10-16T16:10:02;5.25;;;1.90;;
6497;SDS011;3282;48.358;10.958;2022-10-16T16:12:30;5.57;;;2.00;;
6497;SDS011;3282;48.358;10.958;2022-10-16T16:14:57;5.85;;;2.45;;
6497;SDS011;3282;48.358;10.958;2022-10-16T16:17:30;6.22;;;2.85;;
6497;SDS011;3282;48.358;10.958;2022-10-16T16:19:57;7.72;;;3.30;;
6497;SDS011;3282;48.358;10.958;2022-10-16T16:22:24;5.65;;;3.38;;
6497;SDS011;3282;48.358;10.958;2022-10-16T16:24:57;9.60;;;3.55;;
6497;SDS011;3282;48.358;10.958;2022-10-16T16:27:25;8.98;;;3.72;;
6497;SDS011;3282;48.358;10.958;2022-10-16T16:29:52;6.45;;;3.50;;
6497;SDS011;3282;48.358;10.958;2022-10-16T16:32:19;6.05;;;3.13;;
6497;SDS011;3282;48.358;10.958;2022-10-16T16:34:46;7.35;;;2.97;;
6497;SDS011;3282;48.358;10.958;2022-10-16T16:37:13;8.93;;;3.08;;
6497;SDS011;3282;48.358;10.958;2022-10-16T16:39:40;7.18;;;3.05;;
6497;SDS011;3282;48.358;10.958;2022-10-16T16:42:07;7.50;;;3.10;;
6497;SDS011;3282;48.358;10.958;2022-10-16T16:44:34;7.95;;;3.20;;
6497;SDS011;3282;48.358;10.958;2022-10-16T16:47:03;10.43;;;4.85;;
6497;SDS011;3282;48.358;10.958;2022-10-16T16:49:30;15.45;;;7.85;;
6497;SDS011;3282;48.358;10.958;2022-10-16T16:51:57;8.75;;;5.40;;
6497;SDS011;3282;48.358;10.958;2022-10-16T16:54:24;12.43;;;7.90;;
6497;SDS011;3282;48.358;10.958;2022-10-16T16:56:51;10.98;;;6.57;;
6497;SDS011;3282;48.358;10.958;2022-10-16T16:59:19;9.75;;;5.95;;
6497;SDS011;3282;48.358;10.958;2022-10-16T17:01:46;6.63;;;4.72;;
6497;SDS011;3282;48.358;10.958;2022-10-16T17:04:17;8.98;;;4.47;;
6497;SDS011;3282;48.358;10.958;2022-10-16T17:06:45;9.80;;;4.60;;
6497;SDS011;3282;48.358;10.958;2022-10-16T17:09:11;7.25;;;3.65;;
6497;SDS011;3282;48.358;10.958;2022-10-16T17:11:39;5.65;;;3.70;;
6497;SDS011;3282;48.358;10.958;2022-10-16T17:14:10;7.35;;;3.38;;
6497;SDS011;3282;48.358;10.958;2022-10-16T17:16:38;6.20;;;3.05;;
6497;SDS011;3282;48.358;10.958;2022-10-16T17:19:06;8.20;;;3.33;;
6497;SDS011;3282;48.358;10.958;2022-10-16T17:21:34;11.82;;;3.03;;
6497;SDS011;3282;48.358;10.958;2022-10-16T17:24:01;7.90;;;2.70;;
6497;SDS011;3282;48.358;10.958;2022-10-16T17:26:28;8.57;;;3.78;;
6497;SDS011;3282;48.358;10.958;2022-10-16T17:28:56;10.60;;;4.70;;
6497;SDS011;3282;48.358;10.958;2022-10-16T17:31:29;11.25;;;5.05;;
6497;SDS011;3282;48.358;10.958;2022-10-16T17:34:00;8.45;;;5.97;;
6497;SDS011;3282;48.358;10.958;2022-10-16T17:36:29;8.57;;;5.00;;
6497;SDS011;3282;48.358;10.958;2022-10-16T17:38:58;9.90;;;6.10;;
6497;SDS011;3282;48.358;10.958;2022-10-16T17:41:27;10.93;;;6.05;;
6497;SDS011;3282;48.358;10.958;2022-10-16T17:43:53;8.13;;;6.20;;